sensor_id;sensor_type;location;lat;lon;timestamp;P1;durP1;ratioP1;P2;durP2;ratioP2
74309;SDS011;62722;51.142;17.052;2023-05-07T00:01:20;5.97;;;3.72;;
74309;SDS011;62722;51.142;17.052;2023-05-07T00:03:47;6.65;;;4.03;;
74309;SDS011;62722;51.142;17.052;2023-05-07T00:06:15;5.75;;;3.80;;
74309;SDS011;62722;51.142;17.052;2023-05-07T00:08:42;5.72;;;3.80;;
74309;SDS011;62722;51.142;17.052;2023-05-07T00:11:11;6.60;;;3.58;;
74309;SDS011;62722;51.142;17.052;2023-05-07T00:13:38;5.43;;;3.20;;
74309;SDS011;62722;51.142;17.052;2023-05-07T00:16:06;6.20;;;3.63;;
74309;SDS011;62722;51.142;17.052;2023-05-07T00:18:33;7.75;;;3.90;;
74309;SDS011;62722;51.142;17.052;2023-05-07T00:21:00;7.68;;;3.90;;
74309;SDS011;62722;51.142;17.052;2023-05-07T00:23:27;5.85;;;3.72;;
74309;SDS011;62722;51.142;17.052;2023-05-07T00:25:55;6.35;;;3.15;;
74309;SDS011;62722;51.142;17.052;2023-05-07T00:28:24;6.18;;;3.47;;
74309;SDS011;62722;51.142;17.052;2023-05-07T00:30:51;5.82;;;3.70;;
74309;SDS011;62722;51.142;17.052;2023-05-07T00:33:19;5.13;;;3.47;;
74309;SDS011;62722;51.142;17.052;2023-05-07T00:35:47;6.97;;;4.10;;
74309;SDS011;62722;51.142;17.052;2023-05-07T00:38:15;7.25;;;3.95;;
74309;SDS011;62722;51.142;17.052;2023-05-07T00:40:42;7.13;;;4.28;;
74309;SDS011;62722;51.142;17.052;2023-05-07T00:43:10;5.72;;;3.67;;
74309;SDS011;62722;51.142;17.052;2023-05-07T00:45:39;5.45;;;3.50;;
74309;SDS011;62722;51.142;17.052;2023-05-07T00:48:07;5.97;;;3.50;;
74309;SDS011;62722;51.142;17.052;2023-05-07T00:50:34;6.32;;;3.38;;
74309;SDS011;62722;51.142;17.052;2023-05-07T00:53:01;5.50;;;3.53;;
74309;SDS011;62722;51.142;17.052;2023-05-07T00:55:29;5.72;;;3.80;;
74309;SDS011;62722;51.142;17.052;2023-05-07T00:57:56;7.53;;;3.70;;
74309;SDS011;62722;51.142;17.052;2023-05-07T01:00:24;7.32;;;3.72;;
74309;SDS011;62722;51.142;17.052;2023-05-07T01:02:52;6.07;;;3.95;;
74309;SDS011;62722;51.142;17.052;2023-05-07T01:05:20;6.15;;;4.10;;
74309;SDS011;62722;51.142;17.052;2023-05-07T01:07:50;6.40;;;3.67;;
74309;SDS011;62722;51.142;17.052;2023-05-07T01:10:20;6.43;;;4.20;;
74309;SDS011;62722;51.142;17.052;2023-05-07T01:12:48;5.60;;;3.75;;
74309;SDS011;62722;51.142;17.052;2023-05-07T01:15:17;7.63;;;4.25;;
74309;SDS011;62722;51.142;17.052;2023-05-07T01:17:45;6.55;;;4.15;;
74309;SDS011;62722;51.142;17.052;2023-05-07T01:20:14;7.47;;;4.35;;
74309;SDS011;62722;51.142;17.052;2023-05-07T01:22:42;8.25;;;4.75;;
74309;SDS011;62722;51.142;17.052;2023-05-07T01:25:10;6.95;;;4.38;;
74309;SDS011;62722;51.142;17.052;2023-05-07T01:27:37;9.23;;;5.05;;
74309;SDS011;62722;51.142;17.052;2023-05-07T01:30:05;7.80;;;4.32;;
74309;SDS011;62722;51.142;17.052;2023-05-07T01:32:35;7.45;;;4.03;;
74309;SDS011;62722;51.142;17.052;2023-05-07T01:35:09;7.63;;;4.78;;
74309;SDS011;62722;51.142;17.052;2023-05-07T01:37:38;7.60;;;4.45;;
74309;SDS011;62722;51.142;17.052;2023-05-07T01:40:08;7.55;;;4.28;;
74309;SDS011;62722;51.142;17.052;2023-05-07T01:42:36;7.18;;;4.65;;
74309;SDS011;62722;51.142;17.052;2023-05-07T01:45:04;10.35;;;4.80;;
74309;SDS011;62722;51.142;17.052;2023-05-07T01:47:32;7.63;;;4.30;;
74309;SDS011;62722;51.142;17.052;2023-05-07T01:50:00;8.75;;;5.03;;
74309;SDS011;62722;51.142;17.052;2023-05-07T01:52:27;8.27;;;4.80;;
74309;SDS011;62722;51.142;17.052;2023-05-07T01:54:55;5.97;;;3.88;;
74309;SDS011;62722;51.142;17.052;2023-05-07T01:57:24;7.30;;;4.40;;
74309;SDS011;62722;51.142;17.052;2023-05-07T01:59:51;7.03;;;4.95;;
74309;SDS011;62722;51.142;17.052;2023-05-07T02:02:18;7.65;;;4.68;;
74309;SDS011;62722;51.142;17.052;2023-05-07T02:04:46;7.13;;;4.43;;
74309;SDS011;62722;51.142;17.052;2023-05-07T02:07:13;5.95;;;4.13;;
74309;SDS011;62722;51.142;17.052;2023-05-07T02:09:41;7.65;;;5.38;;
74309;SDS011;62722;51.142;17.052;2023-05-07T02:12:08;7.07;;;4.40;;
74309;SDS011;62722;51.142;17.052;2023-05-07T02:14:37;8.00;;;4.40;;
74309;SDS011;62722;51.142;17.052;2023-05-07T02:17:04;7.47;;;4.47;;
74309;SDS011;62722;51.142;17.052;2023-05-07T02:19:31;8.55;;;4.50;;
74309;SDS011;62722;51.142;17.052;2023-05-07T02:21:59;7.78;;;4.03;;
74309;SDS011;62722;51.142;17.052;2023-05-07T02:24:26;9.00;;;4.53;;
74309;SDS011;62722;51.142;17.052;2023-05-07T02:26:53;8.10;;;4.55;;
74309;SDS011;62722;51.142;17.052;2023-05-07T02:29:21;9.07;;;4.85;;
74309;SDS011;62722;51.142;17.052;2023-05-07T02:31:49;8.35;;;4.18;;
74309;SDS011;62722;51.142;17.052;2023-05-07T02:34:18;6.72;;;3.80;;
74309;SDS011;62722;51.142;17.052;2023-05-07T02:36:46;7.45;;;4.30;;
74309;SDS011;62722;51.142;17.052;2023-05-07T02:39:13;8.00;;;4.60;;
74309;SDS011;62722;51.142;17.052;2023-05-07T02:41:41;9.35;;;5.03;;
74309;SDS011;62722;51.142;17.052;2023-05-07T02:44:08;6.85;;;4.53;;
74309;SDS011;62722;51.142;17.052;2023-05-07T02:46:35;7.38;;;4.82;;
74309;SDS011;62722;51.142;17.052;2023-05-07T02:49:04;9.15;;;4.95;;
74309;SDS011;62722;51.142;17.052;2023-05-07T02:51:31;8.70;;;4.57;;
74309;SDS011;62722;51.142;17.052;2023-05-07T02:53:59;7.85;;;5.05;;
74309;SDS011;62722;51.142;17.052;2023-05-07T02:56:27;8.70;;;4.53;;
74309;SDS011;62722;51.142;17.052;2023-05-07T02:58:54;6.47;;;3.92;;
74309;SDS011;62722;51.142;17.052;2023-05-07T03:01:22;9.15;;;5.07;;
74309;SDS011;62722;51.142;17.052;2023-05-07T03:03:49;9.15;;;4.88;;
74309;SDS011;62722;51.142;17.052;2023-05-07T03:06:18;9.30;;;4.90;;
74309;SDS011;62722;51.142;17.052;2023-05-07T03:08:45;8.02;;;4.38;;
74309;SDS011;62722;51.142;17.052;2023-05-07T03:11:12;6.43;;;3.90;;
74309;SDS011;62722;51.142;17.052;2023-05-07T03:13:40;7.43;;;4.55;;
74309;SDS011;62722;51.142;17.052;2023-05-07T03:16:07;7.03;;;4.20;;
74309;SDS011;62722;51.142;17.052;2023-05-07T03:18:34;8.52;;;4.43;;
74309;SDS011;62722;51.142;17.052;2023-05-07T03:21:02;6.70;;;3.72;;
74309;SDS011;62722;51.142;17.052;2023-05-07T03:23:31;7.25;;;4.40;;
74309;SDS011;62722;51.142;17.052;2023-05-07T03:25:58;7.50;;;3.92;;
74309;SDS011;62722;51.142;17.052;2023-05-07T03:28:25;7.40;;;3.90;;
74309;SDS011;62722;51.142;17.052;2023-05-07T03:30:52;7.25;;;4.05;;
74309;SDS011;62722;51.142;17.052;2023-05-07T03:33:20;6.95;;;3.50;;
74309;SDS011;62722;51.142;17.052;2023-05-07T03:35:47;6.88;;;3.60;;
74309;SDS011;62722;51.142;17.052;2023-05-07T03:38:15;6.05;;;3.00;;
74309;SDS011;62722;51.142;17.052;2023-05-07T03:40:43;5.43;;;3.08;;
74309;SDS011;62722;51.142;17.052;2023-05-07T03:43:11;5.90;;;3.47;;
74309;SDS011;62722;51.142;17.052;2023-05-07T03:45:38;5.75;;;3.25;;
74309;SDS011;62722;51.142;17.052;2023-05-07T03:48:05;5.07;;;3.10;;
74309;SDS011;62722;51.142;17.052;2023-05-07T03:50:32;5.05;;;3.00;;
74309;SDS011;62722;51.142;17.052;2023-05-07T03:53:00;5.15;;;3.00;;
74309;SDS011;62722;51.142;17.052;2023-05-07T03:55:27;4.43;;;2.80;;
74309;SDS011;62722;51.142;17.052;2023-05-07T03:57:57;5.72;;;2.83;;
74309;SDS011;62722;51.142;17.052;2023-05-07T04:00:24;5.78;;;3.00;;
74309;SDS011;62722;51.142;17.052;2023-05-07T04:02:51;5.25;;;3.42;;
74309;SDS011;62722;51.142;17.052;2023-05-07T04:05:18;5.35;;;2.83;;
74309;SDS011;62722;51.142;17.052;2023-05-07T04:07:46;3.88;;;2.63;;
74309;SDS011;62722;51.142;17.052;2023-05-07T04:10:13;6.25;;;3.75;;
74309;SDS011;62722;51.142;17.052;2023-05-07T04:12:41;8.35;;;4.57;;
74309;SDS011;62722;51.142;17.052;2023-05-07T04:15:10;7.65;;;4.82;;
74309;SDS011;62722;51.142;17.052;2023-05-07T04:17:37;8.43;;;4.95;;
74309;SDS011;62722;51.142;17.052;2023-05-07T04:20:05;7.30;;;4.65;;
74309;SDS011;62722;51.142;17.052;2023-05-07T04:22:36;7.78;;;4.78;;
74309;SDS011;62722;51.142;17.052;2023-05-07T04:25:04;9.20;;;5.82;;
74309;SDS011;62722;51.142;17.052;2023-05-07T04:27:32;8.73;;;4.95;;
74309;SDS011;62722;51.142;17.052;2023-05-07T04:29:59;7.70;;;5.18;;
74309;SDS011;62722;51.142;17.052;2023-05-07T04:32:28;9.35;;;5.55;;
74309;SDS011;62722;51.142;17.052;2023-05-07T04:34:55;9.23;;;5.50;;
74309;SDS011;62722;51.142;17.052;2023-05-07T04:37:23;8.10;;;5.32;;
74309;SDS011;62722;51.142;17.052;2023-05-07T04:39:50;10.15;;;5.50;;
74309;SDS011;62722;51.142;17.052;2023-05-07T04:42:17;11.50;;;5.80;;
74309;SDS011;62722;51.142;17.052;2023-05-07T04:44:45;8.68;;;5.05;;
74309;SDS011;62722;51.142;17.052;2023-05-07T04:47:12;9.30;;;5.07;;
74309;SDS011;62722;51.142;17.052;2023-05-07T04:49:41;9.73;;;5.20;;
74309;SDS011;62722;51.142;17.052;2023-05-07T04:52:08;6.68;;;4.78;;
74309;SDS011;62722;51.142;17.052;2023-05-07T04:54:35;8.18;;;4.85;;
74309;SDS011;62722;51.142;17.052;2023-05-07T04:57:03;8.57;;;4.20;;
74309;SDS011;62722;51.142;17.052;2023-05-07T04:59:30;6.72;;;4.15;;
74309;SDS011;62722;51.142;17.052;2023-05-07T05:01:58;5.97;;;3.88;;
74309;SDS011;62722;51.142;17.052;2023-05-07T05:04:26;5.55;;;3.83;;
74309;SDS011;62722;51.142;17.052;2023-05-07T05:06:55;6.50;;;4.00;;
74309;SDS011;62722;51.142;17.052;2023-05-07T05:09:22;6.55;;;3.50;;
74309;SDS011;62722;51.142;17.052;2023-05-07T05:11:50;7.38;;;3.53;;
74309;SDS011;62722;51.142;17.052;2023-05-07T05:14:17;5.95;;;3.78;;
74309;SDS011;62722;51.142;17.052;2023-05-07T05:16:44;6.15;;;4.20;;
74309;SDS011;62722;51.142;17.052;2023-05-07T05:19:11;7.00;;;3.97;;
74309;SDS011;62722;51.142;17.052;2023-05-07T05:21:39;7.70;;;4.75;;
74309;SDS011;62722;51.142;17.052;2023-05-07T05:24:08;6.20;;;4.00;;
74309;SDS011;62722;51.142;17.052;2023-05-07T05:26:35;8.25;;;4.40;;
74309;SDS011;62722;51.142;17.052;2023-05-07T05:29:02;8.52;;;4.35;;
74309;SDS011;62722;51.142;17.052;2023-05-07T05:31:30;7.50;;;4.60;;
74309;SDS011;62722;51.142;17.052;2023-05-07T05:33:57;7.05;;;4.43;;
74309;SDS011;62722;51.142;17.052;2023-05-07T05:36:25;7.25;;;3.80;;
74309;SDS011;62722;51.142;17.052;2023-05-07T05:38:52;5.68;;;3.85;;
74309;SDS011;62722;51.142;17.052;2023-05-07T05:41:21;7.20;;;4.30;;
74309;SDS011;62722;51.142;17.052;2023-05-07T05:43:48;7.38;;;4.32;;
74309;SDS011;62722;51.142;17.052;2023-05-07T05:46:15;6.25;;;3.72;;
74309;SDS011;62722;51.142;17.052;2023-05-07T05:48:43;6.05;;;3.92;;
74309;SDS011;62722;51.142;17.052;2023-05-07T05:51:10;6.75;;;4.38;;
74309;SDS011;62722;51.142;17.052;2023-05-07T05:53:37;5.93;;;3.45;;
74309;SDS011;62722;51.142;17.052;2023-05-07T05:56:05;5.93;;;3.75;;
74309;SDS011;62722;51.142;17.052;2023-05-07T05:58:34;6.63;;;4.03;;
74309;SDS011;62722;51.142;17.052;2023-05-07T06:01:02;6.40;;;3.75;;
74309;SDS011;62722;51.142;17.052;2023-05-07T06:03:30;7.32;;;4.00;;
74309;SDS011;62722;51.142;17.052;2023-05-07T06:05:59;7.78;;;4.00;;
74309;SDS011;62722;51.142;17.052;2023-05-07T06:08:28;5.80;;;3.80;;
74309;SDS011;62722;51.142;17.052;2023-05-07T06:10:56;5.60;;;3.63;;
74309;SDS011;62722;51.142;17.052;2023-05-07T06:13:23;5.97;;;4.15;;
74309;SDS011;62722;51.142;17.052;2023-05-07T06:15:52;7.22;;;3.65;;
74309;SDS011;62722;51.142;17.052;2023-05-07T06:18:19;6.47;;;3.72;;
74309;SDS011;62722;51.142;17.052;2023-05-07T06:20:47;6.75;;;3.95;;
74309;SDS011;62722;51.142;17.052;2023-05-07T06:23:14;6.78;;;3.70;;
74309;SDS011;62722;51.142;17.052;2023-05-07T06:25:42;6.00;;;3.40;;
74309;SDS011;62722;51.142;17.052;2023-05-07T06:28:09;5.65;;;3.60;;
74309;SDS011;62722;51.142;17.052;2023-05-07T06:30:37;6.75;;;2.50;;
74309;SDS011;62722;51.142;17.052;2023-05-07T06:33:06;4.60;;;3.10;;
74309;SDS011;62722;51.142;17.052;2023-05-07T06:35:37;4.63;;;2.65;;
74309;SDS011;62722;51.142;17.052;2023-05-07T06:38:04;6.40;;;3.63;;
74309;SDS011;62722;51.142;17.052;2023-05-07T06:40:32;7.03;;;3.85;;
74309;SDS011;62722;51.142;17.052;2023-05-07T06:42:59;7.13;;;3.88;;
74309;SDS011;62722;51.142;17.052;2023-05-07T06:45:26;5.75;;;4.15;;
74309;SDS011;62722;51.142;17.052;2023-05-07T06:47:54;4.57;;;3.00;;
74309;SDS011;62722;51.142;17.052;2023-05-07T06:50:23;5.20;;;3.10;;
74309;SDS011;62722;51.142;17.052;2023-05-07T06:52:50;6.22;;;3.13;;
74309;SDS011;62722;51.142;17.052;2023-05-07T06:55:17;3.67;;;2.30;;
74309;SDS011;62722;51.142;17.052;2023-05-07T06:57:44;5.28;;;2.95;;
74309;SDS011;62722;51.142;17.052;2023-05-07T07:00:12;4.43;;;2.78;;
74309;SDS011;62722;51.142;17.052;2023-05-07T07:02:40;4.20;;;3.00;;
74309;SDS011;62722;51.142;17.052;2023-05-07T07:05:08;4.60;;;2.60;;
74309;SDS011;62722;51.142;17.052;2023-05-07T07:07:37;4.13;;;2.55;;
74309;SDS011;62722;51.142;17.052;2023-05-07T07:10:05;4.05;;;2.20;;
74309;SDS011;62722;51.142;17.052;2023-05-07T07:12:33;4.07;;;2.20;;
74309;SDS011;62722;51.142;17.052;2023-05-07T07:15:00;4.03;;;2.38;;
74309;SDS011;62722;51.142;17.052;2023-05-07T07:17:27;5.25;;;2.20;;
74309;SDS011;62722;51.142;17.052;2023-05-07T07:19:55;3.63;;;1.90;;
74309;SDS011;62722;51.142;17.052;2023-05-07T07:22:22;3.47;;;2.10;;
74309;SDS011;62722;51.142;17.052;2023-05-07T07:24:51;5.07;;;2.50;;
74309;SDS011;62722;51.142;17.052;2023-05-07T07:27:18;3.95;;;2.60;;
74309;SDS011;62722;51.142;17.052;2023-05-07T07:29:46;3.70;;;2.60;;
74309;SDS011;62722;51.142;17.052;2023-05-07T07:32:13;4.38;;;2.55;;
74309;SDS011;62722;51.142;17.052;2023-05-07T07:34:40;4.25;;;2.65;;
74309;SDS011;62722;51.142;17.052;2023-05-07T07:37:07;4.10;;;2.92;;
74309;SDS011;62722;51.142;17.052;2023-05-07T07:39:35;4.20;;;2.30;;
74309;SDS011;62722;51.142;17.052;2023-05-07T07:42:04;5.75;;;3.15;;
74309;SDS011;62722;51.142;17.052;2023-05-07T07:44:32;4.70;;;2.88;;
74309;SDS011;62722;51.142;17.052;2023-05-07T07:46:59;5.00;;;2.78;;
74309;SDS011;62722;51.142;17.052;2023-05-07T07:49:27;6.13;;;3.45;;
74309;SDS011;62722;51.142;17.052;2023-05-07T07:51:54;7.10;;;3.42;;
74309;SDS011;62722;51.142;17.052;2023-05-07T07:54:22;6.10;;;3.75;;
74309;SDS011;62722;51.142;17.052;2023-05-07T07:56:49;5.90;;;3.45;;
74309;SDS011;62722;51.142;17.052;2023-05-07T07:59:18;6.28;;;3.53;;
74309;SDS011;62722;51.142;17.052;2023-05-07T08:01:45;5.10;;;3.30;;
74309;SDS011;62722;51.142;17.052;2023-05-07T08:04:14;5.20;;;3.25;;
74309;SDS011;62722;51.142;17.052;2023-05-07T08:06:41;5.45;;;3.50;;
74309;SDS011;62722;51.142;17.052;2023-05-07T08:09:08;6.47;;;3.75;;
74309;SDS011;62722;51.142;17.052;2023-05-07T08:11:36;6.22;;;3.92;;
74309;SDS011;62722;51.142;17.052;2023-05-07T08:14:03;6.40;;;4.28;;
74309;SDS011;62722;51.142;17.052;2023-05-07T08:16:32;8.35;;;4.68;;
74309;SDS011;62722;51.142;17.052;2023-05-07T08:18:59;7.05;;;4.47;;
74309;SDS011;62722;51.142;17.052;2023-05-07T08:21:26;6.95;;;3.95;;
74309;SDS011;62722;51.142;17.052;2023-05-07T08:23:54;6.40;;;4.25;;
74309;SDS011;62722;51.142;17.052;2023-05-07T08:26:21;8.95;;;4.55;;
74309;SDS011;62722;51.142;17.052;2023-05-07T08:28:48;7.65;;;4.05;;
74309;SDS011;62722;51.142;17.052;2023-05-07T08:31:16;6.60;;;4.18;;
74309;SDS011;62722;51.142;17.052;2023-05-07T08:33:45;6.53;;;4.53;;
74309;SDS011;62722;51.142;17.052;2023-05-07T08:36:12;7.88;;;4.25;;
74309;SDS011;62722;51.142;17.052;2023-05-07T08:38:39;6.53;;;4.40;;
74309;SDS011;62722;51.142;17.052;2023-05-07T08:41:09;7.15;;;4.40;;
74309;SDS011;62722;51.142;17.052;2023-05-07T08:43:37;7.20;;;4.20;;
74309;SDS011;62722;51.142;17.052;2023-05-07T08:46:08;8.98;;;4.93;;
74309;SDS011;62722;51.142;17.052;2023-05-07T08:48:38;7.28;;;4.20;;
74309;SDS011;62722;51.142;17.052;2023-05-07T08:51:08;7.28;;;4.63;;
74309;SDS011;62722;51.142;17.052;2023-05-07T08:53:39;9.25;;;4.93;;
74309;SDS011;62722;51.142;17.052;2023-05-07T08:56:08;7.15;;;4.82;;
74309;SDS011;62722;51.142;17.052;2023-05-07T08:58:37;7.60;;;4.60;;
74309;SDS011;62722;51.142;17.052;2023-05-07T09:01:08;7.32;;;4.60;;
74309;SDS011;62722;51.142;17.052;2023-05-07T09:03:38;8.10;;;4.85;;
74309;SDS011;62722;51.142;17.052;2023-05-07T09:06:06;7.95;;;4.43;;
74309;SDS011;62722;51.142;17.052;2023-05-07T09:08:35;5.97;;;4.35;;
74309;SDS011;62722;51.142;17.052;2023-05-07T09:11:02;7.65;;;4.03;;
74309;SDS011;62722;51.142;17.052;2023-05-07T09:13:30;8.60;;;4.00;;
74309;SDS011;62722;51.142;17.052;2023-05-07T09:15:57;6.13;;;3.85;;
74309;SDS011;62722;51.142;17.052;2023-05-07T09:18:25;7.30;;;4.25;;
74309;SDS011;62722;51.142;17.052;2023-05-07T09:20:52;6.57;;;3.95;;
74309;SDS011;62722;51.142;17.052;2023-05-07T09:23:21;7.80;;;4.53;;
74309;SDS011;62722;51.142;17.052;2023-05-07T09:25:48;5.95;;;3.60;;
74309;SDS011;62722;51.142;17.052;2023-05-07T09:28:16;7.60;;;4.75;;
74309;SDS011;62722;51.142;17.052;2023-05-07T09:30:43;7.10;;;4.50;;
74309;SDS011;62722;51.142;17.052;2023-05-07T09:33:11;8.43;;;4.97;;
74309;SDS011;62722;51.142;17.052;2023-05-07T09:35:39;7.78;;;4.55;;
74309;SDS011;62722;51.142;17.052;2023-05-07T09:38:07;7.93;;;5.03;;
74309;SDS011;62722;51.142;17.052;2023-05-07T09:40:36;11.75;;;5.13;;
74309;SDS011;62722;51.142;17.052;2023-05-07T09:43:10;7.85;;;5.32;;
74309;SDS011;62722;51.142;17.052;2023-05-07T09:45:37;8.20;;;5.22;;
74309;SDS011;62722;51.142;17.052;2023-05-07T09:48:05;7.45;;;4.75;;
74309;SDS011;62722;51.142;17.052;2023-05-07T09:50:35;8.77;;;4.90;;
74309;SDS011;62722;51.142;17.052;2023-05-07T09:53:08;8.68;;;5.28;;
74309;SDS011;62722;51.142;17.052;2023-05-07T09:55:41;7.38;;;4.80;;
74309;SDS011;62722;51.142;17.052;2023-05-07T09:58:11;7.30;;;4.57;;
74309;SDS011;62722;51.142;17.052;2023-05-07T10:00:41;8.35;;;4.53;;
74309;SDS011;62722;51.142;17.052;2023-05-07T10:03:10;8.13;;;4.97;;
74309;SDS011;62722;51.142;17.052;2023-05-07T10:05:38;6.50;;;4.25;;
74309;SDS011;62722;51.142;17.052;2023-05-07T10:08:06;5.82;;;3.80;;
74309;SDS011;62722;51.142;17.052;2023-05-07T10:10:34;5.15;;;3.55;;
74309;SDS011;62722;51.142;17.052;2023-05-07T10:13:03;6.95;;;3.85;;
74309;SDS011;62722;51.142;17.052;2023-05-07T10:15:36;6.20;;;4.03;;
74309;SDS011;62722;51.142;17.052;2023-05-07T10:18:03;5.97;;;3.50;;
74309;SDS011;62722;51.142;17.052;2023-05-07T10:20:33;8.38;;;4.43;;
74309;SDS011;62722;51.142;17.052;2023-05-07T10:23:01;6.93;;;4.28;;
74309;SDS011;62722;51.142;17.052;2023-05-07T10:25:32;5.60;;;3.55;;
74309;SDS011;62722;51.142;17.052;2023-05-07T10:28:00;4.85;;;3.35;;
74309;SDS011;62722;51.142;17.052;2023-05-07T10:30:35;4.35;;;2.95;;
74309;SDS011;62722;51.142;17.052;2023-05-07T10:33:16;5.45;;;3.28;;
74309;SDS011;62722;51.142;17.052;2023-05-07T10:35:47;4.78;;;2.97;;
74309;SDS011;62722;51.142;17.052;2023-05-07T10:38:15;4.50;;;2.88;;
74309;SDS011;62722;51.142;17.052;2023-05-07T10:40:43;5.32;;;3.38;;
74309;SDS011;62722;51.142;17.052;2023-05-07T10:43:11;5.63;;;3.15;;
74309;SDS011;62722;51.142;17.052;2023-05-07T10:45:41;6.13;;;3.63;;
74309;SDS011;62722;51.142;17.052;2023-05-07T10:48:09;4.43;;;3.00;;
74309;SDS011;62722;51.142;17.052;2023-05-07T10:50:37;5.35;;;3.10;;
74309;SDS011;62722;51.142;17.052;2023-05-07T10:53:21;5.60;;;2.97;;
74309;SDS011;62722;51.142;17.052;2023-05-07T10:58:53;5.85;;;3.22;;
74309;SDS011;62722;51.142;17.052;2023-05-07T11:04:19;6.38;;;3.83;;
74309;SDS011;62722;51.142;17.052;2023-05-07T11:09:57;4.28;;;3.10;;
74309;SDS011;62722;51.142;17.052;2023-05-07T11:15:33;7.40;;;3.30;;
74309;SDS011;62722;51.142;17.052;2023-05-07T11:18:03;4.40;;;2.75;;
74309;SDS011;62722;51.142;17.052;2023-05-07T11:20:45;4.50;;;2.95;;
74309;SDS011;62722;51.142;17.052;2023-05-07T11:26:25;5.25;;;3.40;;
74309;SDS011;62722;51.142;17.052;2023-05-07T11:28:54;3.75;;;2.72;;
74309;SDS011;62722;51.142;17.052;2023-05-07T11:31:23;4.90;;;3.22;;
74309;SDS011;62722;51.142;17.052;2023-05-07T11:33:54;4.72;;;3.33;;
74309;SDS011;62722;51.142;17.052;2023-05-07T11:36:23;5.60;;;3.22;;
74309;SDS011;62722;51.142;17.052;2023-05-07T11:38:51;4.40;;;2.70;;
74309;SDS011;62722;51.142;17.052;2023-05-07T11:41:18;5.68;;;3.10;;
74309;SDS011;62722;51.142;17.052;2023-05-07T11:43:58;4.28;;;2.90;;
74309;SDS011;62722;51.142;17.052;2023-05-07T11:46:27;5.32;;;3.47;;
74309;SDS011;62722;51.142;17.052;2023-05-07T11:48:56;5.22;;;3.25;;
74309;SDS011;62722;51.142;17.052;2023-05-07T11:51:24;4.75;;;3.05;;
74309;SDS011;62722;51.142;17.052;2023-05-07T11:53:52;5.00;;;3.10;;
74309;SDS011;62722;51.142;17.052;2023-05-07T11:56:21;4.68;;;2.92;;
74309;SDS011;62722;51.142;17.052;2023-05-07T11:58:56;4.82;;;3.10;;
74309;SDS011;62722;51.142;17.052;2023-05-07T12:01:23;4.40;;;2.95;;
74309;SDS011;62722;51.142;17.052;2023-05-07T12:03:53;5.03;;;2.90;;
74309;SDS011;62722;51.142;17.052;2023-05-07T12:06:22;5.25;;;3.17;;
74309;SDS011;62722;51.142;17.052;2023-05-07T12:08:49;5.63;;;3.25;;
74309;SDS011;62722;51.142;17.052;2023-05-07T12:11:24;4.55;;;3.03;;
74309;SDS011;62722;51.142;17.052;2023-05-07T12:13:53;4.50;;;3.30;;
74309;SDS011;62722;51.142;17.052;2023-05-07T12:16:21;5.18;;;3.53;;
74309;SDS011;62722;51.142;17.052;2023-05-07T12:18:49;5.90;;;3.70;;
74309;SDS011;62722;51.142;17.052;2023-05-07T12:21:22;6.38;;;3.28;;
74309;SDS011;62722;51.142;17.052;2023-05-07T12:23:50;6.28;;;3.33;;
74309;SDS011;62722;51.142;17.052;2023-05-07T12:26:19;5.18;;;3.30;;
74309;SDS011;62722;51.142;17.052;2023-05-07T12:28:46;4.25;;;2.83;;
74309;SDS011;62722;51.142;17.052;2023-05-07T12:31:14;5.78;;;3.30;;
74309;SDS011;62722;51.142;17.052;2023-05-07T12:33:41;6.30;;;3.75;;
74309;SDS011;62722;51.142;17.052;2023-05-07T12:36:11;7.13;;;3.88;;
74309;SDS011;62722;51.142;17.052;2023-05-07T12:38:41;6.28;;;3.33;;
74309;SDS011;62722;51.142;17.052;2023-05-07T12:41:09;5.03;;;3.53;;
74309;SDS011;62722;51.142;17.052;2023-05-07T12:43:37;5.18;;;3.50;;
74309;SDS011;62722;51.142;17.052;2023-05-07T12:46:05;5.25;;;3.60;;
74309;SDS011;62722;51.142;17.052;2023-05-07T12:48:35;5.57;;;3.28;;
74309;SDS011;62722;51.142;17.052;2023-05-07T12:51:05;5.38;;;3.80;;
74309;SDS011;62722;51.142;17.052;2023-05-07T12:53:39;5.28;;;3.67;;
74309;SDS011;62722;51.142;17.052;2023-05-07T12:56:09;6.68;;;4.47;;
74309;SDS011;62722;51.142;17.052;2023-05-07T12:58:36;6.13;;;4.07;;
74309;SDS011;62722;51.142;17.052;2023-05-07T13:01:05;5.88;;;3.72;;
74309;SDS011;62722;51.142;17.052;2023-05-07T13:03:35;6.40;;;3.97;;
74309;SDS011;62722;51.142;17.052;2023-05-07T13:06:04;6.40;;;4.07;;
74309;SDS011;62722;51.142;17.052;2023-05-07T13:08:33;6.10;;;4.05;;
74309;SDS011;62722;51.142;17.052;2023-05-07T13:11:04;6.13;;;3.88;;
74309;SDS011;62722;51.142;17.052;2023-05-07T13:13:34;6.10;;;3.60;;
74309;SDS011;62722;51.142;17.052;2023-05-07T13:16:03;6.13;;;4.03;;
74309;SDS011;62722;51.142;17.052;2023-05-07T13:18:31;7.75;;;4.32;;
74309;SDS011;62722;51.142;17.052;2023-05-07T13:21:01;6.22;;;3.80;;
74309;SDS011;62722;51.142;17.052;2023-05-07T13:23:28;6.38;;;4.28;;
74309;SDS011;62722;51.142;17.052;2023-05-07T13:25:56;7.78;;;4.50;;
74309;SDS011;62722;51.142;17.052;2023-05-07T13:28:24;6.82;;;4.45;;
74309;SDS011;62722;51.142;17.052;2023-05-07T13:30:53;7.43;;;4.65;;
74309;SDS011;62722;51.142;17.052;2023-05-07T13:33:20;6.28;;;4.28;;
74309;SDS011;62722;51.142;17.052;2023-05-07T13:35:47;5.85;;;3.53;;
74309;SDS011;62722;51.142;17.052;2023-05-07T13:38:15;6.38;;;3.90;;
74309;SDS011;62722;51.142;17.052;2023-05-07T13:40:42;6.22;;;3.63;;
74309;SDS011;62722;51.142;17.052;2023-05-07T13:43:09;9.40;;;4.55;;
74309;SDS011;62722;51.142;17.052;2023-05-07T13:45:38;6.05;;;3.42;;
74309;SDS011;62722;51.142;17.052;2023-05-07T13:48:05;4.97;;;3.47;;
74309;SDS011;62722;51.142;17.052;2023-05-07T13:50:33;5.13;;;3.67;;
74309;SDS011;62722;51.142;17.052;2023-05-07T13:53:00;6.35;;;3.70;;
74309;SDS011;62722;51.142;17.052;2023-05-07T13:55:28;5.95;;;3.33;;
74309;SDS011;62722;51.142;17.052;2023-05-07T13:57:56;6.38;;;3.60;;
74309;SDS011;62722;51.142;17.052;2023-05-07T14:00:24;4.88;;;3.22;;
74309;SDS011;62722;51.142;17.052;2023-05-07T14:02:53;6.05;;;3.22;;
74309;SDS011;62722;51.142;17.052;2023-05-07T14:05:20;4.88;;;3.35;;
74309;SDS011;62722;51.142;17.052;2023-05-07T14:07:49;4.28;;;2.85;;
74309;SDS011;62722;51.142;17.052;2023-05-07T14:10:18;5.85;;;3.20;;
74309;SDS011;62722;51.142;17.052;2023-05-07T14:12:45;4.68;;;2.92;;
74309;SDS011;62722;51.142;17.052;2023-05-07T14:15:14;5.45;;;3.35;;
74309;SDS011;62722;51.142;17.052;2023-05-07T14:17:41;5.43;;;3.30;;
74309;SDS011;62722;51.142;17.052;2023-05-07T14:20:11;4.72;;;3.15;;
74309;SDS011;62722;51.142;17.052;2023-05-07T14:22:38;4.90;;;3.05;;
74309;SDS011;62722;51.142;17.052;2023-05-07T14:25:06;4.97;;;3.17;;
74309;SDS011;62722;51.142;17.052;2023-05-07T14:27:35;4.30;;;2.97;;
74309;SDS011;62722;51.142;17.052;2023-05-07T14:30:02;5.68;;;3.35;;
74309;SDS011;62722;51.142;17.052;2023-05-07T14:32:30;5.20;;;3.60;;
74309;SDS011;62722;51.142;17.052;2023-05-07T14:34:57;5.05;;;2.97;;
74309;SDS011;62722;51.142;17.052;2023-05-07T14:37:26;5.32;;;3.25;;
74309;SDS011;62722;51.142;17.052;2023-05-07T14:39:55;4.72;;;2.70;;
74309;SDS011;62722;51.142;17.052;2023-05-07T14:42:22;6.45;;;3.20;;
74309;SDS011;62722;51.142;17.052;2023-05-07T14:44:49;5.72;;;3.67;;
74309;SDS011;62722;51.142;17.052;2023-05-07T14:47:18;5.25;;;3.58;;
74309;SDS011;62722;51.142;17.052;2023-05-07T14:49:45;5.72;;;3.42;;
74309;SDS011;62722;51.142;17.052;2023-05-07T14:52:12;5.25;;;3.30;;
74309;SDS011;62722;51.142;17.052;2023-05-07T14:54:41;6.10;;;3.40;;